MRN weather

Foothills Regional Airport
Morganton, North Carolina, United States

Public forecast

Using degrees Fahrenheit for public forecast. Weather courtesy of forecast.io.

METAR (pilot weather report)

Retrieved 2019/07/23 16:35 UTC (22 minutes ago):

KMRN 231635Z AUTO 00000KT 10SM RA SCT039 SCT047 BKN065 20/18 A2993 RMK AO2 T01990175

TAF (pilot weather forecast)

Closest forecast is Hickory Regional Airport, 11.8 nm (21.9 km) ESE. Retrieved 2019/07/23 12:30 UTC (4 hours ago):

TAF KHKY 231127Z 2312/2412 VRB02KT P6SM -SHRA SCT019 BKN027 OVC100 TEMPO 2312/2313 5SM -RA BR BKN004 FM231500 35006KT P6SM VCTS BKN016CB OVC100 TEMPO 2316/2319 2SM +TSRA BKN009 BKN013CB FM232000 02006KT P6SM VCSH SCT035 BKN070 FM240000 36004KT P6SM SCT150